sensor_id;sensor_type;location;lat;lon;timestamp;temperature;humidity
18502;DHT22;68437;52.236;5.710;2023-04-03T00:01:28;3.00;99.90
18502;DHT22;68437;52.236;5.710;2023-04-03T00:03:55;3.00;99.90
18502;DHT22;68437;52.236;5.710;2023-04-03T00:06:24;2.90;99.90
18502;DHT22;68437;52.236;5.710;2023-04-03T00:08:52;2.90;99.90
18502;DHT22;68437;52.236;5.710;2023-04-03T00:11:19;2.90;99.90
18502;DHT22;68437;52.236;5.710;2023-04-03T00:13:47;2.90;99.90
18502;DHT22;68437;52.236;5.710;2023-04-03T00:16:14;2.90;99.90
18502;DHT22;68437;52.236;5.710;2023-04-03T00:18:41;2.90;99.90
18502;DHT22;68437;52.236;5.710;2023-04-03T00:21:09;2.80;99.90
18502;DHT22;68437;52.236;5.710;2023-04-03T00:23:38;2.70;99.90
18502;DHT22;68437;52.236;5.710;2023-04-03T00:26:04;2.80;99.90
18502;DHT22;68437;52.236;5.710;2023-04-03T00:28:31;2.80;99.90
18502;DHT22;68437;52.236;5.710;2023-04-03T00:30:58;2.90;99.90
18502;DHT22;68437;52.236;5.710;2023-04-03T00:33:25;2.80;99.90
18502;DHT22;68437;52.236;5.710;2023-04-03T00:35:52;2.80;99.90
18502;DHT22;68437;52.236;5.710;2023-04-03T00:38:19;2.90;99.90
18502;DHT22;68437;52.236;5.710;2023-04-03T00:40:48;2.90;99.90
18502;DHT22;68437;52.236;5.710;2023-04-03T00:43:17;2.90;99.90
18502;DHT22;68437;52.236;5.710;2023-04-03T00:45:45;2.80;99.90
18502;DHT22;68437;52.236;5.710;2023-04-03T00:48:15;2.80;99.90
18502;DHT22;68437;52.236;5.710;2023-04-03T00:50:44;2.80;99.90
18502;DHT22;68437;52.236;5.710;2023-04-03T00:53:14;2.80;99.90
18502;DHT22;68437;52.236;5.710;2023-04-03T00:55:43;2.70;99.90
18502;DHT22;68437;52.236;5.710;2023-04-03T00:58:12;2.60;99.90
18502;DHT22;68437;52.236;5.710;2023-04-03T01:00:43;2.70;99.90
18502;DHT22;68437;52.236;5.710;2023-04-03T01:03:13;2.60;99.90
18502;DHT22;68437;52.236;5.710;2023-04-03T01:05:40;2.70;99.90
18502;DHT22;68437;52.236;5.710;2023-04-03T01:08:07;2.60;99.90
18502;DHT22;68437;52.236;5.710;2023-04-03T01:10:34;2.60;99.90
18502;DHT22;68437;52.236;5.710;2023-04-03T01:13:01;2.60;99.90
18502;DHT22;68437;52.236;5.710;2023-04-03T01:15:29;2.60;99.90
18502;DHT22;68437;52.236;5.710;2023-04-03T01:18:00;2.60;99.90
18502;DHT22;68437;52.236;5.710;2023-04-03T01:21:03;2.60;99.90
18502;DHT22;68437;52.236;5.710;2023-04-03T01:23:44;2.50;99.90
18502;DHT22;68437;52.236;5.710;2023-04-03T01:26:12;2.60;99.90
18502;DHT22;68437;52.236;5.710;2023-04-03T01:28:38;2.60;99.90
18502;DHT22;68437;52.236;5.710;2023-04-03T01:31:14;2.40;99.90
18502;DHT22;68437;52.236;5.710;2023-04-03T01:33:43;2.50;99.90
18502;DHT22;68437;52.236;5.710;2023-04-03T01:36:14;2.40;99.90
18502;DHT22;68437;52.236;5.710;2023-04-03T01:38:41;2.50;99.90
18502;DHT22;68437;52.236;5.710;2023-04-03T01:41:08;2.40;99.90
18502;DHT22;68437;52.236;5.710;2023-04-03T01:43:35;2.40;99.90
18502;DHT22;68437;52.236;5.710;2023-04-03T01:46:02;2.40;99.90
18502;DHT22;68437;52.236;5.710;2023-04-03T01:48:29;2.40;99.90
18502;DHT22;68437;52.236;5.710;2023-04-03T01:50:57;2.40;99.90
18502;DHT22;68437;52.236;5.710;2023-04-03T01:53:24;2.40;99.90
18502;DHT22;68437;52.236;5.710;2023-04-03T01:55:51;2.30;99.90
18502;DHT22;68437;52.236;5.710;2023-04-03T01:58:18;2.20;99.90
18502;DHT22;68437;52.236;5.710;2023-04-03T02:00:45;2.20;99.90
18502;DHT22;68437;52.236;5.710;2023-04-03T02:03:12;2.20;99.90
18502;DHT22;68437;52.236;5.710;2023-04-03T02:05:38;2.30;99.90
18502;DHT22;68437;52.236;5.710;2023-04-03T02:08:07;2.20;99.90
18502;DHT22;68437;52.236;5.710;2023-04-03T02:10:34;2.10;99.90
18502;DHT22;68437;52.236;5.710;2023-04-03T02:13:00;2.10;99.90
18502;DHT22;68437;52.236;5.710;2023-04-03T02:15:27;2.10;99.90
18502;DHT22;68437;52.236;5.710;2023-04-03T02:17:54;2.10;99.90
18502;DHT22;68437;52.236;5.710;2023-04-03T02:20:21;2.00;99.90
18502;DHT22;68437;52.236;5.710;2023-04-03T02:22:48;2.00;99.90
18502;DHT22;68437;52.236;5.710;2023-04-03T02:25:16;2.00;99.90
18502;DHT22;68437;52.236;5.710;2023-04-03T02:27:44;2.00;99.90
18502;DHT22;68437;52.236;5.710;2023-04-03T02:30:11;1.90;99.90
18502;DHT22;68437;52.236;5.710;2023-04-03T02:32:40;1.90;99.90
18502;DHT22;68437;52.236;5.710;2023-04-03T02:35:08;1.80;99.90
18502;DHT22;68437;52.236;5.710;2023-04-03T02:37:35;1.80;99.90
18502;DHT22;68437;52.236;5.710;2023-04-03T02:40:02;1.80;99.90
18502;DHT22;68437;52.236;5.710;2023-04-03T02:42:30;1.70;99.90
18502;DHT22;68437;52.236;5.710;2023-04-03T02:44:57;1.70;99.90
18502;DHT22;68437;52.236;5.710;2023-04-03T02:47:25;1.70;99.90
18502;DHT22;68437;52.236;5.710;2023-04-03T02:49:52;1.70;99.90
18502;DHT22;68437;52.236;5.710;2023-04-03T02:52:19;1.70;99.90
18502;DHT22;68437;52.236;5.710;2023-04-03T02:54:46;1.70;99.90
18502;DHT22;68437;52.236;5.710;2023-04-03T02:57:13;1.70;99.90
18502;DHT22;68437;52.236;5.710;2023-04-03T02:59:41;1.70;99.90
18502;DHT22;68437;52.236;5.710;2023-04-03T03:02:08;1.70;99.90
18502;DHT22;68437;52.236;5.710;2023-04-03T03:04:35;1.70;99.90
18502;DHT22;68437;52.236;5.710;2023-04-03T03:07:02;1.60;99.90
18502;DHT22;68437;52.236;5.710;2023-04-03T03:09:29;1.60;99.90
18502;DHT22;68437;52.236;5.710;2023-04-03T03:11:56;1.60;99.90
18502;DHT22;68437;52.236;5.710;2023-04-03T03:14:23;1.60;99.90
18502;DHT22;68437;52.236;5.710;2023-04-03T03:16:51;1.60;99.90
18502;DHT22;68437;52.236;5.710;2023-04-03T03:19:18;1.60;99.90
18502;DHT22;68437;52.236;5.710;2023-04-03T03:21:45;1.50;99.90
18502;DHT22;68437;52.236;5.710;2023-04-03T03:24:12;1.50;99.90
18502;DHT22;68437;52.236;5.710;2023-04-03T03:26:39;1.60;99.90
18502;DHT22;68437;52.236;5.710;2023-04-03T03:29:05;1.60;99.90
18502;DHT22;68437;52.236;5.710;2023-04-03T03:31:32;1.50;99.90
18502;DHT22;68437;52.236;5.710;2023-04-03T03:34:00;1.60;99.90
18502;DHT22;68437;52.236;5.710;2023-04-03T03:36:27;1.50;99.90
18502;DHT22;68437;52.236;5.710;2023-04-03T03:38:54;1.40;99.90
18502;DHT22;68437;52.236;5.710;2023-04-03T03:41:21;1.40;99.90
18502;DHT22;68437;52.236;5.710;2023-04-03T03:43:48;1.40;99.90
18502;DHT22;68437;52.236;5.710;2023-04-03T03:46:15;1.30;99.90
18502;DHT22;68437;52.236;5.710;2023-04-03T03:48:42;1.30;99.90
18502;DHT22;68437;52.236;5.710;2023-04-03T03:51:10;1.30;99.90
18502;DHT22;68437;52.236;5.710;2023-04-03T03:53:37;1.30;99.90
18502;DHT22;68437;52.236;5.710;2023-04-03T03:56:04;1.20;99.90
18502;DHT22;68437;52.236;5.710;2023-04-03T03:58:31;1.30;99.90
18502;DHT22;68437;52.236;5.710;2023-04-03T04:01:00;1.30;99.90
18502;DHT22;68437;52.236;5.710;2023-04-03T04:03:27;1.20;99.90
18502;DHT22;68437;52.236;5.710;2023-04-03T04:05:54;1.30;99.90
18502;DHT22;68437;52.236;5.710;2023-04-03T04:08:22;1.20;99.90
18502;DHT22;68437;52.236;5.710;2023-04-03T04:10:49;1.20;99.90
18502;DHT22;68437;52.236;5.710;2023-04-03T04:13:16;1.20;99.90
18502;DHT22;68437;52.236;5.710;2023-04-03T04:15:43;1.20;99.90
18502;DHT22;68437;52.236;5.710;2023-04-03T04:18:10;1.10;99.90
18502;DHT22;68437;52.236;5.710;2023-04-03T04:20:37;1.10;99.90
18502;DHT22;68437;52.236;5.710;2023-04-03T04:23:03;1.10;99.90
18502;DHT22;68437;52.236;5.710;2023-04-03T04:25:32;1.00;99.90
18502;DHT22;68437;52.236;5.710;2023-04-03T04:27:59;1.00;99.90
18502;DHT22;68437;52.236;5.710;2023-04-03T04:30:26;1.00;99.90
18502;DHT22;68437;52.236;5.710;2023-04-03T04:32:53;1.10;99.90
18502;DHT22;68437;52.236;5.710;2023-04-03T04:35:19;1.10;99.90
18502;DHT22;68437;52.236;5.710;2023-04-03T04:37:46;1.10;99.90
18502;DHT22;68437;52.236;5.710;2023-04-03T04:40:13;1.00;99.90
18502;DHT22;68437;52.236;5.710;2023-04-03T04:42:41;1.00;99.90
18502;DHT22;68437;52.236;5.710;2023-04-03T04:45:09;1.00;99.90
18502;DHT22;68437;52.236;5.710;2023-04-03T04:47:36;1.00;99.90
18502;DHT22;68437;52.236;5.710;2023-04-03T04:50:03;1.00;99.90
18502;DHT22;68437;52.236;5.710;2023-04-03T04:52:30;0.90;99.90
18502;DHT22;68437;52.236;5.710;2023-04-03T04:54:57;0.90;99.90
18502;DHT22;68437;52.236;5.710;2023-04-03T04:57:24;0.90;99.90
18502;DHT22;68437;52.236;5.710;2023-04-03T04:59:52;1.00;99.90
18502;DHT22;68437;52.236;5.710;2023-04-03T05:02:19;0.90;99.90
18502;DHT22;68437;52.236;5.710;2023-04-03T05:04:45;0.80;99.90
18502;DHT22;68437;52.236;5.710;2023-04-03T05:07:12;0.80;99.90
18502;DHT22;68437;52.236;5.710;2023-04-03T05:09:39;0.90;99.90
18502;DHT22;68437;52.236;5.710;2023-04-03T05:12:07;0.80;99.90
18502;DHT22;68437;52.236;5.710;2023-04-03T05:14:34;0.80;99.90
18502;DHT22;68437;52.236;5.710;2023-04-03T05:17:02;0.80;99.90
18502;DHT22;68437;52.236;5.710;2023-04-03T05:19:29;0.80;99.90
18502;DHT22;68437;52.236;5.710;2023-04-03T05:21:56;0.80;99.90
18502;DHT22;68437;52.236;5.710;2023-04-03T05:24:23;0.80;99.90
18502;DHT22;68437;52.236;5.710;2023-04-03T05:26:50;0.80;99.90
18502;DHT22;68437;52.236;5.710;2023-04-03T05:29:17;0.80;99.90
18502;DHT22;68437;52.236;5.710;2023-04-03T05:31:43;0.90;99.90
18502;DHT22;68437;52.236;5.710;2023-04-03T05:34:12;0.90;99.90
18502;DHT22;68437;52.236;5.710;2023-04-03T05:36:38;0.90;99.90
18502;DHT22;68437;52.236;5.710;2023-04-03T05:39:05;0.90;99.90
18502;DHT22;68437;52.236;5.710;2023-04-03T05:41:32;0.90;99.90
18502;DHT22;68437;52.236;5.710;2023-04-03T05:43:59;0.90;99.90
18502;DHT22;68437;52.236;5.710;2023-04-03T05:46:26;0.80;99.90
18502;DHT22;68437;52.236;5.710;2023-04-03T05:48:53;0.90;99.90
18502;DHT22;68437;52.236;5.710;2023-04-03T05:51:23;0.90;99.90
18502;DHT22;68437;52.236;5.710;2023-04-03T05:53:53;1.00;99.90
18502;DHT22;68437;52.236;5.710;2023-04-03T05:56:21;1.00;99.90
18502;DHT22;68437;52.236;5.710;2023-04-03T05:58:48;1.10;99.90
18502;DHT22;68437;52.236;5.710;2023-04-03T06:01:15;1.10;99.90
18502;DHT22;68437;52.236;5.710;2023-04-03T06:03:42;1.10;99.90
18502;DHT22;68437;52.236;5.710;2023-04-03T06:06:12;1.20;99.90
18502;DHT22;68437;52.236;5.710;2023-04-03T06:08:40;1.20;99.90
18502;DHT22;68437;52.236;5.710;2023-04-03T06:11:09;1.30;99.90
18502;DHT22;68437;52.236;5.710;2023-04-03T06:13:36;1.30;99.90
18502;DHT22;68437;52.236;5.710;2023-04-03T06:16:04;1.40;99.90
18502;DHT22;68437;52.236;5.710;2023-04-03T06:18:31;1.40;99.90
18502;DHT22;68437;52.236;5.710;2023-04-03T06:20:58;1.50;99.90
18502;DHT22;68437;52.236;5.710;2023-04-03T06:23:26;1.50;99.90
18502;DHT22;68437;52.236;5.710;2023-04-03T06:25:54;1.50;99.90
18502;DHT22;68437;52.236;5.710;2023-04-03T06:28:21;1.60;99.90
18502;DHT22;68437;52.236;5.710;2023-04-03T06:30:48;1.70;99.90
18502;DHT22;68437;52.236;5.710;2023-04-03T06:33:15;1.70;99.90
18502;DHT22;68437;52.236;5.710;2023-04-03T06:35:42;1.80;99.90
18502;DHT22;68437;52.236;5.710;2023-04-03T06:38:08;1.80;99.90
18502;DHT22;68437;52.236;5.710;2023-04-03T06:40:36;1.80;99.90
18502;DHT22;68437;52.236;5.710;2023-04-03T06:43:05;1.90;99.90
18502;DHT22;68437;52.236;5.710;2023-04-03T06:45:32;1.90;99.90
18502;DHT22;68437;52.236;5.710;2023-04-03T06:47:59;2.00;99.90
18502;DHT22;68437;52.236;5.710;2023-04-03T06:50:27;2.00;99.90
18502;DHT22;68437;52.236;5.710;2023-04-03T06:52:54;2.10;99.90
18502;DHT22;68437;52.236;5.710;2023-04-03T06:55:21;2.20;99.90
18502;DHT22;68437;52.236;5.710;2023-04-03T06:57:48;2.30;99.90
18502;DHT22;68437;52.236;5.710;2023-04-03T07:00:17;2.30;99.90
18502;DHT22;68437;52.236;5.710;2023-04-03T07:02:44;2.40;99.90
18502;DHT22;68437;52.236;5.710;2023-04-03T07:05:12;2.50;99.90
18502;DHT22;68437;52.236;5.710;2023-04-03T07:07:39;2.40;99.90
18502;DHT22;68437;52.236;5.710;2023-04-03T07:10:07;2.40;99.90
18502;DHT22;68437;52.236;5.710;2023-04-03T07:12:35;2.60;99.90
18502;DHT22;68437;52.236;5.710;2023-04-03T07:15:02;2.60;99.90
18502;DHT22;68437;52.236;5.710;2023-04-03T07:17:30;2.60;99.90
18502;DHT22;68437;52.236;5.710;2023-04-03T07:19:57;2.70;99.90
18502;DHT22;68437;52.236;5.710;2023-04-03T07:22:24;2.70;99.90
18502;DHT22;68437;52.236;5.710;2023-04-03T07:24:51;2.80;99.90
18502;DHT22;68437;52.236;5.710;2023-04-03T07:27:18;2.80;99.90
18502;DHT22;68437;52.236;5.710;2023-04-03T07:29:45;2.90;99.90
18502;DHT22;68437;52.236;5.710;2023-04-03T07:32:13;3.00;99.90
18502;DHT22;68437;52.236;5.710;2023-04-03T07:34:41;3.10;99.90
18502;DHT22;68437;52.236;5.710;2023-04-03T07:37:08;3.10;99.90
18502;DHT22;68437;52.236;5.710;2023-04-03T07:39:35;3.10;99.90
18502;DHT22;68437;52.236;5.710;2023-04-03T07:42:02;3.10;99.90
18502;DHT22;68437;52.236;5.710;2023-04-03T07:44:29;3.20;99.90
18502;DHT22;68437;52.236;5.710;2023-04-03T07:46:56;3.30;99.90
18502;DHT22;68437;52.236;5.710;2023-04-03T07:49:23;3.40;99.90
18502;DHT22;68437;52.236;5.710;2023-04-03T07:51:51;3.60;99.90
18502;DHT22;68437;52.236;5.710;2023-04-03T07:54:18;3.70;99.90
18502;DHT22;68437;52.236;5.710;2023-04-03T07:56:45;3.70;99.90
18502;DHT22;68437;52.236;5.710;2023-04-03T07:59:12;3.80;99.90
18502;DHT22;68437;52.236;5.710;2023-04-03T08:01:39;3.90;99.90
18502;DHT22;68437;52.236;5.710;2023-04-03T08:04:06;4.00;99.90
18502;DHT22;68437;52.236;5.710;2023-04-03T08:06:33;4.00;99.90
18502;DHT22;68437;52.236;5.710;2023-04-03T08:09:03;4.10;99.90
18502;DHT22;68437;52.236;5.710;2023-04-03T08:11:30;4.10;99.90
18502;DHT22;68437;52.236;5.710;2023-04-03T08:13:57;4.10;99.90
18502;DHT22;68437;52.236;5.710;2023-04-03T08:16:24;4.20;99.90
18502;DHT22;68437;52.236;5.710;2023-04-03T08:18:53;4.20;99.90
18502;DHT22;68437;52.236;5.710;2023-04-03T08:21:20;4.30;99.90
18502;DHT22;68437;52.236;5.710;2023-04-03T08:23:48;4.40;99.90
18502;DHT22;68437;52.236;5.710;2023-04-03T08:26:19;4.50;99.90
18502;DHT22;68437;52.236;5.710;2023-04-03T08:28:46;4.60;99.90
18502;DHT22;68437;52.236;5.710;2023-04-03T08:31:15;4.70;99.90
18502;DHT22;68437;52.236;5.710;2023-04-03T08:33:44;4.80;99.90
18502;DHT22;68437;52.236;5.710;2023-04-03T08:36:17;4.90;99.90
18502;DHT22;68437;52.236;5.710;2023-04-03T08:38:44;5.00;99.90
18502;DHT22;68437;52.236;5.710;2023-04-03T08:41:15;5.10;99.90
18502;DHT22;68437;52.236;5.710;2023-04-03T08:43:55;5.20;99.90
18502;DHT22;68437;52.236;5.710;2023-04-03T08:46:35;5.30;99.90
18502;DHT22;68437;52.236;5.710;2023-04-03T08:49:03;5.30;99.90
18502;DHT22;68437;52.236;5.710;2023-04-03T08:51:31;5.30;99.90
18502;DHT22;68437;52.236;5.710;2023-04-03T08:54:00;5.50;99.90
18502;DHT22;68437;52.236;5.710;2023-04-03T08:56:30;5.60;99.90
18502;DHT22;68437;52.236;5.710;2023-04-03T08:59:00;5.60;99.90
18502;DHT22;68437;52.236;5.710;2023-04-03T09:01:30;5.70;99.90
18502;DHT22;68437;52.236;5.710;2023-04-03T09:04:01;5.80;99.90
18502;DHT22;68437;52.236;5.710;2023-04-03T09:06:31;6.00;99.90
18502;DHT22;68437;52.236;5.710;2023-04-03T09:09:09;6.00;99.90
18502;DHT22;68437;52.236;5.710;2023-04-03T09:11:46;6.20;99.90
18502;DHT22;68437;52.236;5.710;2023-04-03T09:14:24;6.30;99.90
18502;DHT22;68437;52.236;5.710;2023-04-03T09:16:55;6.50;99.90
18502;DHT22;68437;52.236;5.710;2023-04-03T09:19:32;6.50;99.90
18502;DHT22;68437;52.236;5.710;2023-04-03T09:22:09;6.50;99.90
18502;DHT22;68437;52.236;5.710;2023-04-03T09:24:38;6.60;99.90
18502;DHT22;68437;52.236;5.710;2023-04-03T09:27:09;6.50;99.90
18502;DHT22;68437;52.236;5.710;2023-04-03T09:29:39;6.70;99.90
18502;DHT22;68437;52.236;5.710;2023-04-03T09:32:21;6.80;99.90
18502;DHT22;68437;52.236;5.710;2023-04-03T09:34:49;6.90;99.90
18502;DHT22;68437;52.236;5.710;2023-04-03T09:37:36;6.90;99.90
18502;DHT22;68437;52.236;5.710;2023-04-03T09:40:05;7.00;99.90
18502;DHT22;68437;52.236;5.710;2023-04-03T09:42:45;7.10;99.90
18502;DHT22;68437;52.236;5.710;2023-04-03T09:45:23;7.20;99.90
18502;DHT22;68437;52.236;5.710;2023-04-03T09:48:05;7.20;99.90
18502;DHT22;68437;52.236;5.710;2023-04-03T09:50:32;7.40;99.90
18502;DHT22;68437;52.236;5.710;2023-04-03T09:53:05;7.50;99.90
18502;DHT22;68437;52.236;5.710;2023-04-03T09:55:32;7.50;99.90
18502;DHT22;68437;52.236;5.710;2023-04-03T09:58:01;7.60;99.90
18502;DHT22;68437;52.236;5.710;2023-04-03T10:00:31;7.70;99.90
18502;DHT22;68437;52.236;5.710;2023-04-03T10:02:59;7.60;99.90
18502;DHT22;68437;52.236;5.710;2023-04-03T10:05:31;7.50;99.90
18502;DHT22;68437;52.236;5.710;2023-04-03T10:08:20;7.50;99.90
18502;DHT22;68437;52.236;5.710;2023-04-03T10:11:09;7.60;99.90
18502;DHT22;68437;52.236;5.710;2023-04-03T10:13:49;7.60;99.90
18502;DHT22;68437;52.236;5.710;2023-04-03T10:16:18;7.70;99.90
18502;DHT22;68437;52.236;5.710;2023-04-03T10:18:52;7.80;99.90
18502;DHT22;68437;52.236;5.710;2023-04-03T10:21:32;7.70;99.90
18502;DHT22;68437;52.236;5.710;2023-04-03T10:24:08;7.80;99.90
18502;DHT22;68437;52.236;5.710;2023-04-03T10:26:41;7.80;99.90
18502;DHT22;68437;52.236;5.710;2023-04-03T10:29:19;7.80;99.90
18502;DHT22;68437;52.236;5.710;2023-04-03T10:31:55;7.90;99.90
18502;DHT22;68437;52.236;5.710;2023-04-03T10:34:29;8.10;99.90
18502;DHT22;68437;52.236;5.710;2023-04-03T10:37:05;8.30;99.90
18502;DHT22;68437;52.236;5.710;2023-04-03T10:39:39;8.40;99.90
18502;DHT22;68437;52.236;5.710;2023-04-03T10:42:13;8.50;99.90
18502;DHT22;68437;52.236;5.710;2023-04-03T10:44:52;8.50;99.90
18502;DHT22;68437;52.236;5.710;2023-04-03T10:47:27;8.50;99.90
18502;DHT22;68437;52.236;5.710;2023-04-03T10:50:00;8.60;99.90
18502;DHT22;68437;52.236;5.710;2023-04-03T10:52:36;8.80;99.90
18502;DHT22;68437;52.236;5.710;2023-04-03T10:55:27;8.90;99.90
18502;DHT22;68437;52.236;5.710;2023-04-03T10:57:58;9.10;99.90
18502;DHT22;68437;52.236;5.710;2023-04-03T11:00:31;9.10;99.90
18502;DHT22;68437;52.236;5.710;2023-04-03T11:03:05;8.90;99.90
18502;DHT22;68437;52.236;5.710;2023-04-03T11:05:37;9.00;99.90
18502;DHT22;68437;52.236;5.710;2023-04-03T11:08:13;8.90;99.90
18502;DHT22;68437;52.236;5.710;2023-04-03T11:10:44;8.80;99.90
18502;DHT22;68437;52.236;5.710;2023-04-03T11:13:14;9.00;99.90
18502;DHT22;68437;52.236;5.710;2023-04-03T11:15:43;9.20;99.90
18502;DHT22;68437;52.236;5.710;2023-04-03T11:18:17;9.40;99.90
18502;DHT22;68437;52.236;5.710;2023-04-03T11:20:53;9.50;99.90
18502;DHT22;68437;52.236;5.710;2023-04-03T11:23:25;9.70;99.90
18502;DHT22;68437;52.236;5.710;2023-04-03T11:25:55;9.70;99.90
18502;DHT22;68437;52.236;5.710;2023-04-03T11:28:24;9.80;99.90
18502;DHT22;68437;52.236;5.710;2023-04-03T11:30:59;9.90;99.90
18502;DHT22;68437;52.236;5.710;2023-04-03T11:33:40;9.70;99.90
18502;DHT22;68437;52.236;5.710;2023-04-03T11:36:13;9.70;99.90
18502;DHT22;68437;52.236;5.710;2023-04-03T11:38:47;9.80;99.90
18502;DHT22;68437;52.236;5.710;2023-04-03T11:41:16;9.70;99.90
18502;DHT22;68437;52.236;5.710;2023-04-03T11:43:56;9.80;99.90
18502;DHT22;68437;52.236;5.710;2023-04-03T11:46:49;10.00;99.90
18502;DHT22;68437;52.236;5.710;2023-04-03T11:55:47;10.40;99.90
18502;DHT22;68437;52.236;5.710;2023-04-03T11:58:22;10.10;99.90
18502;DHT22;68437;52.236;5.710;2023-04-03T12:00:51;9.90;99.90
18502;DHT22;68437;52.236;5.710;2023-04-03T12:12:32;10.20;99.90
18502;DHT22;68437;52.236;5.710;2023-04-03T12:15:44;10.40;99.90
18502;DHT22;68437;52.236;5.710;2023-04-03T12:21:18;10.40;99.90
18502;DHT22;68437;52.236;5.710;2023-04-03T12:24:02;10.20;99.90
18502;DHT22;68437;52.236;5.710;2023-04-03T12:26:47;9.80;99.90
18502;DHT22;68437;52.236;5.710;2023-04-03T12:29:23;9.70;99.90
18502;DHT22;68437;52.236;5.710;2023-04-03T12:31:59;9.60;99.90
18502;DHT22;68437;52.236;5.710;2023-04-03T12:34:49;9.60;99.90
18502;DHT22;68437;52.236;5.710;2023-04-03T12:37:30;9.70;99.90
18502;DHT22;68437;52.236;5.710;2023-04-03T12:40:09;10.10;99.90
18502;DHT22;68437;52.236;5.710;2023-04-03T12:42:58;10.20;99.90
18502;DHT22;68437;52.236;5.710;2023-04-03T12:45:40;10.30;99.90
18502;DHT22;68437;52.236;5.710;2023-04-03T12:48:13;10.30;99.90
18502;DHT22;68437;52.236;5.710;2023-04-03T12:50:40;10.30;99.90
18502;DHT22;68437;52.236;5.710;2023-04-03T12:53:13;10.60;99.90
18502;DHT22;68437;52.236;5.710;2023-04-03T12:55:42;10.70;99.90
18502;DHT22;68437;52.236;5.710;2023-04-03T12:58:16;10.70;99.90
18502;DHT22;68437;52.236;5.710;2023-04-03T13:00:59;10.90;99.90
18502;DHT22;68437;52.236;5.710;2023-04-03T13:03:26;11.10;99.90
18502;DHT22;68437;52.236;5.710;2023-04-03T13:05:55;11.00;99.90
18502;DHT22;68437;52.236;5.710;2023-04-03T13:08:23;10.90;99.90
18502;DHT22;68437;52.236;5.710;2023-04-03T13:10:54;11.10;99.90
18502;DHT22;68437;52.236;5.710;2023-04-03T13:13:22;11.40;99.90
18502;DHT22;68437;52.236;5.710;2023-04-03T13:15:50;11.00;99.90
18502;DHT22;68437;52.236;5.710;2023-04-03T13:18:29;11.20;99.90
18502;DHT22;68437;52.236;5.710;2023-04-03T13:21:01;11.30;99.90
18502;DHT22;68437;52.236;5.710;2023-04-03T13:23:30;11.50;99.90
18502;DHT22;68437;52.236;5.710;2023-04-03T13:25:58;11.40;99.90
18502;DHT22;68437;52.236;5.710;2023-04-03T13:28:30;11.40;99.90
18502;DHT22;68437;52.236;5.710;2023-04-03T13:31:03;11.10;99.90
18502;DHT22;68437;52.236;5.710;2023-04-03T13:33:33;10.80;99.90
18502;DHT22;68437;52.236;5.710;2023-04-03T13:36:05;10.80;99.90
18502;DHT22;68437;52.236;5.710;2023-04-03T13:38:33;10.90;99.90
18502;DHT22;68437;52.236;5.710;2023-04-03T13:41:04;11.00;99.90
18502;DHT22;68437;52.236;5.710;2023-04-03T13:43:34;10.90;99.90
18502;DHT22;68437;52.236;5.710;2023-04-03T13:46:24;10.60;99.90
18502;DHT22;68437;52.236;5.710;2023-04-03T13:48:54;10.40;99.90
18502;DHT22;68437;52.236;5.710;2023-04-03T13:51:24;10.60;99.90
18502;DHT22;68437;52.236;5.710;2023-04-03T13:53:54;10.80;99.90
18502;DHT22;68437;52.236;5.710;2023-04-03T13:56:25;11.60;99.90
18502;DHT22;68437;52.236;5.710;2023-04-03T13:59:01;11.20;99.90
18502;DHT22;68437;52.236;5.710;2023-04-03T14:01:39;11.20;99.90
18502;DHT22;68437;52.236;5.710;2023-04-03T14:04:15;10.70;99.90
18502;DHT22;68437;52.236;5.710;2023-04-03T14:06:43;10.30;99.90
18502;DHT22;68437;52.236;5.710;2023-04-03T14:09:10;10.40;99.90
18502;DHT22;68437;52.236;5.710;2023-04-03T14:11:37;10.70;99.90
18502;DHT22;68437;52.236;5.710;2023-04-03T14:14:11;10.80;99.90
18502;DHT22;68437;52.236;5.710;2023-04-03T14:16:42;10.50;99.90
18502;DHT22;68437;52.236;5.710;2023-04-03T14:19:24;10.30;99.90
18502;DHT22;68437;52.236;5.710;2023-04-03T14:21:52;10.20;99.90
18502;DHT22;68437;52.236;5.710;2023-04-03T14:24:21;10.10;99.90
18502;DHT22;68437;52.236;5.710;2023-04-03T14:26:48;10.40;99.90
18502;DHT22;68437;52.236;5.710;2023-04-03T14:29:16;10.50;99.90
18502;DHT22;68437;52.236;5.710;2023-04-03T14:31:45;10.60;99.90
18502;DHT22;68437;52.236;5.710;2023-04-03T14:34:12;10.60;99.90
18502;DHT22;68437;52.236;5.710;2023-04-03T14:36:41;10.80;99.90
18502;DHT22;68437;52.236;5.710;2023-04-03T14:39:11;10.80;99.90
18502;DHT22;68437;52.236;5.710;2023-04-03T14:41:38;10.70;99.90
18502;DHT22;68437;52.236;5.710;2023-04-03T14:44:05;10.60;99.90
18502;DHT22;68437;52.236;5.710;2023-04-03T14:46:34;10.50;99.90
18502;DHT22;68437;52.236;5.710;2023-04-03T14:49:05;10.40;99.90
18502;DHT22;68437;52.236;5.710;2023-04-03T14:51:36;10.30;99.90
18502;DHT22;68437;52.236;5.710;2023-04-03T14:54:03;10.30;99.90
18502;DHT22;68437;52.236;5.710;2023-04-03T14:56:31;10.30;99.90
18502;DHT22;68437;52.236;5.710;2023-04-03T14:59:00;10.40;99.90
18502;DHT22;68437;52.236;5.710;2023-04-03T15:01:27;10.50;99.90
18502;DHT22;68437;52.236;5.710;2023-04-03T15:03:54;10.70;99.90
18502;DHT22;68437;52.236;5.710;2023-04-03T15:06:23;10.50;99.90
18502;DHT22;68437;52.236;5.710;2023-04-03T15:08:50;10.30;99.90
18502;DHT22;68437;52.236;5.710;2023-04-03T15:11:16;10.20;99.90
18502;DHT22;68437;52.236;5.710;2023-04-03T15:13:43;10.10;99.90
18502;DHT22;68437;52.236;5.710;2023-04-03T15:16:16;10.20;99.90
18502;DHT22;68437;52.236;5.710;2023-04-03T15:18:44;10.40;99.90
18502;DHT22;68437;52.236;5.710;2023-04-03T15:21:11;10.50;99.90
18502;DHT22;68437;52.236;5.710;2023-04-03T15:23:40;10.50;99.90
18502;DHT22;68437;52.236;5.710;2023-04-03T15:26:07;10.20;99.90
18502;DHT22;68437;52.236;5.710;2023-04-03T15:28:37;10.00;99.90
18502;DHT22;68437;52.236;5.710;2023-04-03T15:31:04;9.90;99.90
18502;DHT22;68437;52.236;5.710;2023-04-03T15:33:31;9.80;99.90
18502;DHT22;68437;52.236;5.710;2023-04-03T15:35:59;9.60;99.90
18502;DHT22;68437;52.236;5.710;2023-04-03T15:38:26;9.60;99.90
18502;DHT22;68437;52.236;5.710;2023-04-03T15:40:57;9.70;99.90
18502;DHT22;68437;52.236;5.710;2023-04-03T15:43:25;9.60;99.90
18502;DHT22;68437;52.236;5.710;2023-04-03T15:45:52;9.50;99.90
18502;DHT22;68437;52.236;5.710;2023-04-03T15:48:22;9.40;99.90
18502;DHT22;68437;52.236;5.710;2023-04-03T15:50:49;9.20;99.90
18502;DHT22;68437;52.236;5.710;2023-04-03T15:53:16;9.20;99.90
18502;DHT22;68437;52.236;5.710;2023-04-03T15:55:43;9.20;99.90
18502;DHT22;68437;52.236;5.710;2023-04-03T15:58:11;9.10;99.90
18502;DHT22;68437;52.236;5.710;2023-04-03T16:00:38;9.10;99.90
18502;DHT22;68437;52.236;5.710;2023-04-03T16:03:09;9.00;99.90
18502;DHT22;68437;52.236;5.710;2023-04-03T16:05:38;9.10;99.90
18502;DHT22;68437;52.236;5.710;2023-04-03T16:08:06;9.10;99.90
18502;DHT22;68437;52.236;5.710;2023-04-03T16:10:34;9.20;99.90
18502;DHT22;68437;52.236;5.710;2023-04-03T16:13:01;9.40;99.90
18502;DHT22;68437;52.236;5.710;2023-04-03T16:15:29;9.50;99.90
18502;DHT22;68437;52.236;5.710;2023-04-03T16:17:58;9.50;99.90